createdAt,value
2023-01-23T00:04:19.578Z,4.90
2023-01-23T00:09:24.834Z,4.80
2023-01-23T00:14:28.524Z,4.80
2023-01-23T00:19:31.882Z,4.80
2023-01-23T00:24:36.641Z,4.80
2023-01-23T00:29:40.031Z,4.70
2023-01-23T00:34:43.535Z,4.80
2023-01-23T00:39:50.922Z,4.80
2023-01-23T00:44:54.333Z,4.80
2023-01-23T00:49:59.145Z,4.80
2023-01-23T00:55:03.920Z,4.80
2023-01-23T01:00:08.322Z,4.80
2023-01-23T01:05:11.828Z,4.80
2023-01-23T01:10:18.726Z,4.80
2023-01-23T01:15:22.252Z,4.90
2023-01-23T01:20:26.931Z,4.80
2023-01-23T01:25:31.831Z,4.80
2023-01-23T01:30:36.789Z,4.80
2023-01-23T01:35:41.660Z,4.90
2023-01-23T01:40:46.451Z,4.80
2023-01-23T01:46:09.586Z,4.80
2023-01-23T01:51:19.578Z,4.80
2023-01-23T01:56:24.733Z,4.80
2023-01-23T02:01:28.534Z,4.80
2023-01-23T02:06:32.254Z,4.90
2023-01-23T02:11:37.540Z,4.90
2023-01-23T02:16:46.457Z,4.90
2023-01-23T02:21:53.765Z,4.90
2023-01-23T02:26:58.596Z,4.90
2023-01-23T02:32:02.028Z,4.90
2023-01-23T02:37:07.597Z,4.90
2023-01-23T02:42:13.317Z,4.90
2023-01-23T02:47:16.932Z,4.90
2023-01-23T02:52:20.331Z,4.90
2023-01-23T02:57:25.133Z,4.90
2023-01-23T03:02:28.792Z,4.90
2023-01-23T03:07:32.320Z,4.90
2023-01-23T03:12:39.709Z,4.90
2023-01-23T03:17:43.140Z,4.80
2023-01-23T03:22:46.946Z,4.90
2023-01-23T03:27:51.724Z,4.90
2023-01-23T03:32:55.213Z,4.80
2023-01-23T03:37:58.631Z,4.80
2023-01-23T03:43:03.905Z,4.80
2023-01-23T03:48:07.703Z,4.80
2023-01-23T03:53:11.379Z,4.80
2023-01-23T03:58:16.464Z,4.90
2023-01-23T04:03:19.830Z,4.80
2023-01-23T04:08:23.757Z,4.80
2023-01-23T04:13:29.116Z,4.80
2023-01-23T04:18:32.616Z,4.80
2023-01-23T04:23:37.038Z,4.80
2023-01-23T04:28:42.217Z,4.80
2023-01-23T04:33:45.675Z,4.80
2023-01-23T04:38:49.168Z,4.80
2023-01-23T04:43:53.925Z,4.70
2023-01-23T04:48:57.305Z,4.70
2023-01-23T04:54:00.736Z,4.70
2023-01-23T04:59:05.586Z,4.80
2023-01-23T05:04:09.209Z,4.80
2023-01-23T05:09:13.578Z,4.80
2023-01-23T05:14:19.757Z,4.80
2023-01-23T05:19:23.371Z,4.80
2023-01-23T05:24:26.807Z,4.70
2023-01-23T05:29:31.629Z,4.80
2023-01-23T05:34:35.076Z,4.80
2023-01-23T05:39:38.733Z,4.70
2023-01-23T05:44:43.440Z,4.70
2023-01-23T05:49:46.976Z,4.70
2023-01-23T05:54:51.067Z,4.70
2023-01-23T05:59:55.930Z,4.70
2023-01-23T06:04:59.300Z,4.70
2023-01-23T06:10:02.693Z,4.70
2023-01-23T06:15:09.410Z,4.70
2023-01-23T06:20:13.672Z,4.60
2023-01-23T06:25:18.394Z,4.70
2023-01-23T06:30:23.381Z,4.60
2023-01-23T06:35:26.747Z,4.60
2023-01-23T06:40:30.096Z,4.60
2023-01-23T06:45:35.065Z,4.60
2023-01-23T06:50:39.579Z,4.60
2023-01-23T06:55:43.144Z,4.70
2023-01-23T07:00:48.392Z,4.70
2023-01-23T07:05:52.279Z,4.60
2023-01-23T07:10:55.719Z,4.70
2023-01-23T07:16:00.927Z,4.70
2023-01-23T07:21:07.319Z,4.70
2023-01-23T07:26:12.244Z,4.70
2023-01-23T07:31:17.507Z,4.70
2023-01-23T07:36:21.228Z,4.70
2023-01-23T07:41:24.542Z,4.70
2023-01-23T07:46:29.351Z,4.70
2023-01-23T07:51:32.778Z,4.70
2023-01-23T07:56:36.168Z,4.70
2023-01-23T08:01:40.970Z,4.70
2023-01-23T08:06:44.436Z,4.70
2023-01-23T08:11:47.818Z,4.70
2023-01-23T08:16:53.549Z,4.70
2023-01-23T08:21:57.002Z,4.70
2023-01-23T08:27:00.436Z,4.70
2023-01-23T08:32:05.768Z,4.60
2023-01-23T08:37:09.181Z,4.60
2023-01-23T08:42:12.629Z,4.70
2023-01-23T08:47:17.961Z,4.70
2023-01-23T08:52:21.411Z,4.80
2023-01-23T08:57:25.149Z,4.70
2023-01-23T09:02:29.874Z,4.70
2023-01-23T09:07:36.385Z,4.70
2023-01-23T09:12:41.689Z,4.80
2023-01-23T09:17:46.566Z,4.80
2023-01-23T09:22:49.995Z,4.70
2023-01-23T09:27:53.353Z,4.70
2023-01-23T09:32:58.168Z,4.70
2023-01-23T09:38:01.762Z,4.80
2023-01-23T09:43:14.178Z,4.90
2023-01-23T09:48:25.981Z,4.90
2023-01-23T09:53:36.154Z,4.90
2023-01-23T09:58:44.971Z,4.90
2023-01-23T10:03:50.027Z,4.80
2023-01-23T10:09:21.309Z,4.90
2023-01-23T10:15:06.027Z,4.80
2023-01-23T10:20:30.618Z,4.90
2023-01-23T10:25:41.028Z,4.90
2023-01-23T10:30:50.532Z,4.90
2023-01-23T10:35:59.555Z,4.90
2023-01-23T10:41:14.906Z,4.90
2023-01-23T10:46:19.733Z,4.90
2023-01-23T10:51:50.722Z,4.90
2023-01-23T10:56:58.614Z,4.90
2023-01-23T11:02:19.171Z,4.90
2023-01-23T11:07:26.156Z,5.00
2023-01-23T11:12:31.914Z,5.00
2023-01-23T11:17:35.481Z,5.00
2023-01-23T11:22:42.538Z,5.10
2023-01-23T11:27:58.097Z,5.00
2023-01-23T11:33:13.227Z,5.00
2023-01-23T11:38:30.616Z,5.00
2023-01-23T11:43:34.553Z,5.00
2023-01-23T11:48:55.052Z,5.00
2023-01-23T11:54:17.219Z,5.00
2023-01-23T11:59:43.863Z,5.00
2023-01-23T12:05:02.856Z,5.00
2023-01-23T12:10:19.819Z,5.00
2023-01-23T12:15:33.382Z,5.00
2023-01-23T12:20:51.567Z,5.00
2023-01-23T12:26:04.238Z,5.00
2023-01-23T12:31:29.291Z,5.00
2023-01-23T12:37:08.504Z,5.00
2023-01-23T12:42:21.593Z,5.00
2023-01-23T12:47:28.896Z,5.00
2023-01-23T12:52:39.342Z,5.00
2023-01-23T12:58:00.216Z,5.10
2023-01-23T13:03:46.368Z,5.10
2023-01-23T13:09:12.051Z,5.10
2023-01-23T13:14:31.489Z,5.10
2023-01-23T13:20:00.745Z,5.00
2023-01-23T13:25:17.656Z,5.00
2023-01-23T13:30:42.481Z,5.00
2023-01-23T13:35:56.125Z,5.00
2023-01-23T13:41:29.891Z,5.00
2023-01-23T14:25:19.287Z,5.00
2023-01-23T14:30:27.473Z,5.00
2023-01-23T14:35:33.786Z,5.00
2023-01-23T14:40:50.213Z,5.00
2023-01-23T14:46:00.952Z,5.10
2023-01-23T14:51:10.227Z,5.10
2023-01-23T14:56:13.911Z,5.00
2023-01-23T15:01:17.535Z,5.00
2023-01-23T15:06:24.019Z,5.10
2023-01-23T15:11:28.877Z,5.10
2023-01-23T15:16:36.147Z,5.00
2023-01-23T15:21:42.945Z,5.00
2023-01-23T15:26:57.619Z,5.00
2023-01-23T15:32:02.734Z,4.90
2023-01-23T15:37:22.771Z,4.90
2023-01-23T15:42:29.477Z,4.90
2023-01-23T15:47:33.843Z,4.90
2023-01-23T15:52:49.436Z,4.80
2023-01-23T15:57:53.520Z,4.80
2023-01-23T16:02:58.319Z,4.70
2023-01-23T16:08:05.819Z,4.70
2023-01-23T16:13:13.608Z,4.70
2023-01-23T16:18:17.125Z,4.70
2023-01-23T16:23:25.871Z,4.70
2023-01-23T16:28:30.229Z,4.70
2023-01-23T16:33:34.022Z,4.70
2023-01-23T16:38:38.842Z,4.60
2023-01-23T16:43:42.447Z,4.60
2023-01-23T16:48:45.850Z,4.60
2023-01-23T16:53:55.388Z,4.60
2023-01-23T16:58:59.339Z,4.60
2023-01-23T17:04:04.978Z,4.60
2023-01-23T17:09:12.111Z,4.60
2023-01-23T17:14:19.296Z,4.50
2023-01-23T17:19:29.965Z,4.50
2023-01-23T17:24:35.241Z,4.50
2023-01-23T17:29:38.774Z,4.50
2023-01-23T17:34:49.918Z,4.50
2023-01-23T17:39:55.702Z,4.50
2023-01-23T17:44:59.191Z,4.40
2023-01-23T17:50:03.472Z,4.40
2023-01-23T17:55:14.548Z,4.50
2023-01-23T18:00:20.566Z,4.50
2023-01-23T18:05:25.738Z,4.50
2023-01-23T18:10:30.980Z,4.50
2023-01-23T18:15:41.342Z,4.50
2023-01-23T18:20:46.176Z,4.50
2023-01-23T18:26:01.582Z,4.50
2023-01-23T18:31:10.430Z,4.50
2023-01-23T18:36:26.430Z,4.60
2023-01-23T18:41:31.978Z,4.60
2023-01-23T18:46:36.216Z,4.60
2023-01-23T18:51:46.577Z,4.60
2023-01-23T18:57:09.237Z,4.60
2023-01-23T19:02:21.691Z,4.60
2023-01-23T19:07:25.604Z,4.60
2023-01-23T19:12:38.850Z,4.60
2023-01-23T19:17:46.838Z,4.60
2023-01-23T19:23:01.969Z,4.60
2023-01-23T19:28:09.914Z,4.60
2023-01-23T19:33:16.941Z,4.60
2023-01-23T19:38:22.618Z,4.60
2023-01-23T19:43:28.934Z,4.60
2023-01-23T19:48:32.352Z,4.60
2023-01-23T19:53:35.711Z,4.60
2023-01-23T19:58:41.447Z,4.60
2023-01-23T20:03:44.809Z,4.50
2023-01-23T20:08:48.335Z,4.50
2023-01-23T20:13:53.516Z,4.50
2023-01-23T20:18:56.976Z,4.50
2023-01-23T20:24:00.749Z,4.60
2023-01-23T20:29:06.644Z,4.50
2023-01-23T20:34:10.093Z,4.50
2023-01-23T20:39:14.170Z,4.50
2023-01-23T20:44:18.866Z,4.50
2023-01-23T20:49:23.427Z,4.50
2023-01-23T20:54:27.105Z,4.40
2023-01-23T20:59:32.525Z,4.30
2023-01-23T21:04:38.380Z,4.30
2023-01-23T21:09:41.914Z,4.30
2023-01-23T21:14:46.766Z,4.30
2023-01-23T21:19:50.360Z,4.40
2023-01-23T21:24:53.780Z,4.40
2023-01-23T21:29:58.627Z,4.50
2023-01-23T21:35:02.935Z,4.50
2023-01-23T21:40:08.586Z,4.50
2023-01-23T21:45:13.549Z,4.60
2023-01-23T21:50:18.317Z,4.60
2023-01-23T21:55:21.949Z,4.70
2023-01-23T22:00:52.739Z,4.70
2023-01-23T22:05:58.818Z,4.60
2023-01-23T22:11:02.212Z,4.60
2023-01-23T22:16:07.976Z,4.70
2023-01-23T22:21:11.852Z,4.60
2023-01-23T22:26:15.541Z,4.60
2023-01-23T22:31:20.391Z,4.70
2023-01-23T22:36:23.813Z,4.70
2023-01-23T22:41:29.072Z,4.70
2023-01-23T22:46:33.902Z,4.70
2023-01-23T22:51:37.660Z,4.70
2023-01-23T22:56:41.341Z,4.70
2023-01-23T23:01:46.067Z,4.70
2023-01-23T23:06:49.438Z,4.70
2023-01-23T23:11:52.872Z,4.60
2023-01-23T23:16:57.981Z,4.60
2023-01-23T23:22:01.376Z,4.50
2023-01-23T23:27:04.949Z,4.50
2023-01-23T23:32:10.014Z,4.60
2023-01-23T23:37:13.607Z,4.60
2023-01-23T23:42:17.431Z,4.60
2023-01-23T23:47:22.143Z,4.60
2023-01-23T23:52:25.553Z,4.60
2023-01-23T23:57:28.911Z,4.50
